createdAt,value
2023-04-11T00:02:39.102Z,13.95
2023-04-11T00:05:41.698Z,15.63
2023-04-11T00:08:44.458Z,14.10
2023-04-11T00:11:47.962Z,16.70
2023-04-11T00:14:50.145Z,14.43
2023-04-11T00:17:53.782Z,15.48
2023-04-11T00:20:56.013Z,14.25
2023-04-11T00:23:58.855Z,14.25
2023-04-11T00:27:01.498Z,14.32
2023-04-11T00:30:07.855Z,16.33
2023-04-11T00:33:10.053Z,15.38
2023-04-11T00:36:12.794Z,13.67
2023-04-11T00:39:18.322Z,15.18
2023-04-11T00:42:20.783Z,13.90
2023-04-11T00:45:23.179Z,15.20
2023-04-11T00:48:28.411Z,15.30
2023-04-11T00:51:30.842Z,15.50
2023-04-11T00:54:33.968Z,16.37
2023-04-11T00:57:36.367Z,15.27
2023-04-11T01:00:39.513Z,14.32
2023-04-11T01:03:41.859Z,15.33
2023-04-11T01:06:52.846Z,13.70
2023-04-11T01:09:55.451Z,14.75
2023-04-11T01:13:01.308Z,13.77
2023-04-11T01:16:04.115Z,13.82
2023-04-11T01:19:07.054Z,14.82
2023-04-11T01:22:11.398Z,15.65
2023-04-11T01:25:15.958Z,13.07
2023-04-11T01:28:19.510Z,13.98
2023-04-11T01:31:22.463Z,12.93
2023-04-11T01:34:28.358Z,14.70
2023-04-11T01:37:31.752Z,14.00
2023-04-11T01:40:34.749Z,13.68
2023-04-11T01:43:37.453Z,14.15
2023-04-11T01:46:39.830Z,14.35
2023-04-11T01:49:43.097Z,14.43
2023-04-11T01:52:45.358Z,14.60
2023-04-11T01:55:48.090Z,14.37
2023-04-11T01:58:50.425Z,14.45
2023-04-11T02:01:53.089Z,15.35
2023-04-11T02:04:55.665Z,14.23
2023-04-11T02:07:57.802Z,14.57
2023-04-11T02:11:00.417Z,14.40
2023-04-11T02:14:03.619Z,15.23
2023-04-11T02:17:09.879Z,14.15
2023-04-11T02:20:13.789Z,16.02
2023-04-11T02:23:16.257Z,13.62
2023-04-11T02:26:18.773Z,12.57
2023-04-11T02:29:21.173Z,15.77
2023-04-11T02:32:25.028Z,14.13
2023-04-11T02:35:27.320Z,14.13
2023-04-11T02:38:29.924Z,14.25
2023-04-11T02:44:35.880Z,14.15
2023-04-11T02:47:39.665Z,15.63
2023-04-11T02:50:42.867Z,13.35
2023-04-11T02:53:45.470Z,15.25
2023-04-11T02:56:48.701Z,13.30
2023-04-11T02:59:50.917Z,16.02
2023-04-11T03:02:56.678Z,13.73
2023-04-11T03:05:59.354Z,13.13
2023-04-11T03:09:02.153Z,14.32
2023-04-11T03:12:04.686Z,14.35
2023-04-11T03:15:09.024Z,11.70
2023-04-11T03:18:11.436Z,14.23
2023-04-11T03:21:14.641Z,13.60
2023-04-11T03:24:18.038Z,14.60
2023-04-11T03:27:20.664Z,14.43
2023-04-11T03:30:23.764Z,15.40
2023-04-11T03:33:26.710Z,14.68
2023-04-11T03:36:29.927Z,13.38
2023-04-11T03:39:37.212Z,16.12
2023-04-11T03:42:39.946Z,15.73
2023-04-11T03:45:43.107Z,16.75
2023-04-11T03:48:47.121Z,17.85
2023-04-11T03:51:50.781Z,16.48
2023-04-11T03:54:53.288Z,15.68
2023-04-11T03:57:58.561Z,16.02
2023-04-11T04:01:02.758Z,16.55
2023-04-11T04:04:06.561Z,15.65
2023-04-11T04:07:10.295Z,17.33
2023-04-11T04:10:13.184Z,13.62
2023-04-11T04:13:16.067Z,14.55
2023-04-11T04:19:22.929Z,15.77
2023-04-11T04:22:26.626Z,16.12
2023-04-11T04:25:30.238Z,16.25
2023-04-11T04:28:33.715Z,15.10
2023-04-11T04:31:36.471Z,16.20
2023-04-11T04:34:46.598Z,15.43
2023-04-11T04:37:49.936Z,14.87
2023-04-11T04:40:54.721Z,13.82
2023-04-11T04:43:58.319Z,15.38
2023-04-11T04:47:02.190Z,14.80
2023-04-11T04:50:04.938Z,15.77
2023-04-11T04:53:07.566Z,15.00
2023-04-11T04:56:11.728Z,13.55
2023-04-11T04:59:14.677Z,14.63
2023-04-11T05:02:18.259Z,14.90
2023-04-11T05:05:24.628Z,14.68
2023-04-11T05:08:27.309Z,15.07
2023-04-11T05:11:30.881Z,16.17
2023-04-11T05:14:33.199Z,15.70
2023-04-11T05:20:39.652Z,16.20
2023-04-11T05:23:42.703Z,15.82
2023-04-11T05:26:45.878Z,13.57
2023-04-11T05:29:51.201Z,15.48
2023-04-11T05:32:53.880Z,14.93
2023-04-11T05:35:56.806Z,15.30
2023-04-11T05:38:59.078Z,14.32
2023-04-11T05:42:07.480Z,13.50
2023-04-11T05:45:10.921Z,14.63
2023-04-11T05:48:16.682Z,11.82
2023-04-11T05:51:18.853Z,14.05
2023-04-11T05:54:36.224Z,14.23
2023-04-11T05:57:38.419Z,13.93
2023-04-11T06:00:41.147Z,11.83
2023-04-11T06:03:45.798Z,12.95
2023-04-11T06:06:48.216Z,14.80
2023-04-11T06:09:50.838Z,13.02
2023-04-11T06:12:53.477Z,14.38
2023-04-11T06:15:56.216Z,14.15
2023-04-11T06:18:58.452Z,14.27
2023-04-11T06:22:01.124Z,14.23
2023-04-11T06:25:04.482Z,14.00
2023-04-11T06:28:07.716Z,14.20
2023-04-11T06:31:09.917Z,13.15
2023-04-11T06:34:12.506Z,13.60
2023-04-11T06:37:15.040Z,13.20
2023-04-11T06:40:20.282Z,14.07
2023-04-11T06:43:22.491Z,12.82
2023-04-11T06:46:24.922Z,13.50
2023-04-11T06:49:28.441Z,14.90
2023-04-11T06:52:31.176Z,12.65
2023-04-11T06:55:33.312Z,14.23
2023-04-11T06:58:35.826Z,13.77
2023-04-11T07:01:39.629Z,13.80
2023-04-11T07:04:42.348Z,14.15
2023-04-11T07:07:44.702Z,14.20
2023-04-11T07:10:47.490Z,15.02
2023-04-11T07:13:50.965Z,16.73
2023-04-11T07:16:53.482Z,14.57
2023-04-11T07:19:55.969Z,15.85
2023-04-11T07:22:59.305Z,15.05
2023-04-11T07:26:01.583Z,14.57
2023-04-11T07:29:04.580Z,13.20
2023-04-11T07:32:06.891Z,11.23
2023-04-11T07:35:10.101Z,11.70
2023-04-11T07:38:12.649Z,10.88
2023-04-11T07:41:18.299Z,11.23
2023-04-11T07:44:20.447Z,8.88
2023-04-11T07:47:22.901Z,10.23
2023-04-11T07:50:25.361Z,10.23
2023-04-11T07:53:27.984Z,10.23
2023-04-11T07:56:30.482Z,11.10
2023-04-11T07:59:33.100Z,11.38
2023-04-11T08:02:35.643Z,10.15
2023-04-11T08:05:38.421Z,11.88
2023-04-11T08:08:40.657Z,10.70
2023-04-11T08:11:43.175Z,11.98
2023-04-11T08:14:45.343Z,11.70
2023-04-11T08:17:49.803Z,12.20
2023-04-11T08:20:52.896Z,10.45
2023-04-11T08:23:55.828Z,13.15
2023-04-11T08:26:58.154Z,11.00
2023-04-11T08:30:00.699Z,10.50
2023-04-11T08:33:02.940Z,10.80
2023-04-11T08:36:09.839Z,10.88
2023-04-11T08:39:12.333Z,13.10
2023-04-11T08:42:24.960Z,10.70
2023-04-11T08:45:28.140Z,12.35
2023-04-11T08:48:32.200Z,12.88
2023-04-11T08:51:34.397Z,12.82
2023-04-11T08:54:36.875Z,13.73
2023-04-11T08:57:39.099Z,13.02
2023-04-11T09:00:41.618Z,12.27
2023-04-11T09:03:54.156Z,12.15
2023-04-11T09:07:00.581Z,11.65
2023-04-11T09:10:20.208Z,11.98
2023-04-11T09:13:23.889Z,12.88
2023-04-11T09:16:26.209Z,12.23
2023-04-11T09:19:31.503Z,12.95
2023-04-11T09:22:36.598Z,9.70
2023-04-11T09:25:45.343Z,11.55
2023-04-11T09:28:54.781Z,12.10
2023-04-11T09:31:57.392Z,10.60
2023-04-11T09:35:27.433Z,10.73
2023-04-11T09:38:35.303Z,10.65
2023-04-11T09:41:37.614Z,10.30
2023-04-11T09:44:40.229Z,11.10
2023-04-11T09:47:44.603Z,12.25
2023-04-11T09:50:49.598Z,11.45
2023-04-11T09:53:52.760Z,11.90
2023-04-11T09:56:57.111Z,13.20
2023-04-11T10:00:01.832Z,13.05
2023-04-11T10:03:04.355Z,12.75
2023-04-11T10:06:09.012Z,15.30
2023-04-11T10:09:12.875Z,13.57
2023-04-11T10:12:31.593Z,12.40
2023-04-11T10:15:34.124Z,13.18
2023-04-11T10:18:37.324Z,11.32
2023-04-11T10:21:41.866Z,10.15
2023-04-11T10:25:17.023Z,11.68
2023-04-11T10:28:39.380Z,11.02
2023-04-11T10:32:07.561Z,11.65
2023-04-11T10:35:10.605Z,10.40
2023-04-11T10:38:48.406Z,9.95
2023-04-11T10:41:50.821Z,11.50
2023-04-11T10:45:18.423Z,12.30
2023-04-11T10:48:20.695Z,12.13
2023-04-11T10:51:27.896Z,12.30
2023-04-11T10:54:30.335Z,13.80
2023-04-11T10:58:11.973Z,11.77
2023-04-11T11:01:31.412Z,11.73
2023-04-11T11:04:40.487Z,11.20
2023-04-11T11:07:46.592Z,11.93
2023-04-11T11:10:50.364Z,11.63
2023-04-11T11:13:55.763Z,11.48
2023-04-11T11:16:58.895Z,14.30
2023-04-11T11:20:01.595Z,10.90
2023-04-11T11:23:06.709Z,9.98
2023-04-11T11:26:08.899Z,10.68
2023-04-11T11:29:12.188Z,11.95
2023-04-11T11:35:25.085Z,11.30
2023-04-11T11:38:29.349Z,11.57
2023-04-11T11:41:34.192Z,9.93
2023-04-11T11:44:37.311Z,11.12
2023-04-11T11:47:43.979Z,9.52
2023-04-11T11:50:46.212Z,10.35
2023-04-11T11:54:10.787Z,8.95
2023-04-11T11:57:22.861Z,8.93
2023-04-11T12:00:27.077Z,9.38
2023-04-11T12:03:29.673Z,9.45
2023-04-11T12:06:32.459Z,9.48
2023-04-11T12:09:34.896Z,10.75
2023-04-11T12:12:53.708Z,9.45
2023-04-11T12:15:58.232Z,8.90
2023-04-11T12:19:02.896Z,8.88
2023-04-11T12:22:05.417Z,8.88
2023-04-11T12:25:14.957Z,9.55
2023-04-11T12:28:17.442Z,11.60
2023-04-11T12:31:21.886Z,9.80
2023-04-11T12:34:27.490Z,11.60
2023-04-11T12:37:30.729Z,9.27
2023-04-11T12:40:36.073Z,9.48
2023-04-11T12:43:38.222Z,9.10
2023-04-11T12:46:40.899Z,8.40
2023-04-11T12:49:43.395Z,8.60
2023-04-11T12:52:46.028Z,8.82
2023-04-11T12:55:48.277Z,9.13
2023-04-11T12:58:50.713Z,9.48
2023-04-11T13:01:53.442Z,9.02
2023-04-11T13:04:55.981Z,10.27
2023-04-11T13:07:58.320Z,9.45
2023-04-11T13:11:00.912Z,8.90
2023-04-11T13:14:04.036Z,10.48
2023-04-11T13:20:09.995Z,9.25
2023-04-11T13:23:13.701Z,7.65
2023-04-11T13:26:17.104Z,7.10
2023-04-11T13:29:19.668Z,7.80
2023-04-11T13:32:21.998Z,8.68
2023-04-11T13:35:25.502Z,7.70
2023-04-11T13:38:29.220Z,7.50
2023-04-11T13:41:32.524Z,7.53
2023-04-11T13:44:35.106Z,7.50
2023-04-11T13:47:38.893Z,7.32
2023-04-11T13:50:41.428Z,7.53
2023-04-11T13:53:43.956Z,7.17
2023-04-11T13:56:46.170Z,6.25
2023-04-11T13:59:48.686Z,8.00
2023-04-11T14:02:52.674Z,7.93
2023-04-11T14:05:55.500Z,6.47
2023-04-11T14:08:57.750Z,7.22
2023-04-11T14:12:01.380Z,6.77
2023-04-11T14:15:05.526Z,6.12
2023-04-11T14:18:08.002Z,5.97
2023-04-11T14:21:10.634Z,5.10
2023-04-11T14:24:13.946Z,5.90
2023-04-11T14:27:16.813Z,4.90
2023-04-11T14:30:22.371Z,4.75
2023-04-11T14:33:24.732Z,4.22
2023-04-11T14:36:27.796Z,4.63
2023-04-11T14:39:30.408Z,4.55
2023-04-11T14:42:33.000Z,4.22
2023-04-11T14:45:36.298Z,5.03
2023-04-11T14:51:40.944Z,4.50
2023-04-11T14:54:43.430Z,4.23
2023-04-11T14:57:51.469Z,5.62
2023-04-11T15:00:53.985Z,4.65
2023-04-11T15:03:56.896Z,3.92
2023-04-11T15:06:59.688Z,4.65
2023-04-11T15:10:02.195Z,3.67
2023-04-11T15:13:05.362Z,4.23
2023-04-11T15:16:08.280Z,4.18
2023-04-11T15:19:10.855Z,4.43
2023-04-11T15:22:13.033Z,4.25
2023-04-11T15:25:16.518Z,3.72
2023-04-11T15:28:18.765Z,3.62
2023-04-11T15:31:26.176Z,3.70
2023-04-11T15:34:28.571Z,4.93
2023-04-11T15:37:31.148Z,3.53
2023-04-11T15:40:33.521Z,3.72
2023-04-11T15:43:36.451Z,3.90
2023-04-11T15:46:39.598Z,3.58
2023-04-11T15:49:42.495Z,4.20
2023-04-11T15:52:44.960Z,3.93
2023-04-11T15:55:47.714Z,4.50
2023-04-11T15:58:49.973Z,4.45
2023-04-11T16:01:52.789Z,3.75
2023-04-11T16:04:55.525Z,4.05
2023-04-11T16:07:58.334Z,4.22
2023-04-11T16:11:00.964Z,4.20
2023-04-11T16:14:03.345Z,3.78
2023-04-11T16:17:06.904Z,5.10
2023-04-11T16:20:12.052Z,4.70
2023-04-11T16:23:14.809Z,3.95
2023-04-11T16:26:17.135Z,3.65
2023-04-11T16:29:19.618Z,4.50
2023-04-11T16:32:22.118Z,5.75
2023-04-11T16:35:24.842Z,3.70
2023-04-11T16:38:27.198Z,3.72
2023-04-11T16:41:31.453Z,4.03
2023-04-11T16:44:33.588Z,4.57
2023-04-11T16:47:36.342Z,4.32
2023-04-11T16:50:40.281Z,3.55
2023-04-11T16:53:42.821Z,4.22
2023-04-11T16:56:46.962Z,4.45
2023-04-11T16:59:49.493Z,3.75
2023-04-11T17:02:51.919Z,5.12
2023-04-11T17:05:54.731Z,5.63
2023-04-11T17:08:57.795Z,5.70
2023-04-11T17:12:02.135Z,4.15
2023-04-11T17:15:07.016Z,4.47
2023-04-11T17:18:09.625Z,4.37
2023-04-11T17:21:11.828Z,4.78
2023-04-11T17:24:14.351Z,3.95
2023-04-11T17:27:16.638Z,3.45
2023-04-11T17:30:19.267Z,3.40
2023-04-11T17:33:23.855Z,3.47
2023-04-11T17:36:28.300Z,3.60
2023-04-11T17:39:30.566Z,3.97
2023-04-11T17:42:33.063Z,4.28
2023-04-11T17:45:35.954Z,4.10
2023-04-11T17:48:38.369Z,4.12
2023-04-11T17:51:48.812Z,4.47
2023-04-11T17:54:51.694Z,4.12
2023-04-11T17:57:53.985Z,5.25
2023-04-11T18:00:57.223Z,5.97
2023-04-11T18:04:01.398Z,6.37
2023-04-11T18:07:04.096Z,5.85
2023-04-11T18:10:07.178Z,5.78
2023-04-11T18:13:09.326Z,5.67
2023-04-11T18:16:12.048Z,5.05
2023-04-11T18:19:15.954Z,5.57
2023-04-11T18:22:18.488Z,5.90
2023-04-11T18:25:21.430Z,5.78
2023-04-11T18:28:23.930Z,5.43
2023-04-11T18:31:26.196Z,5.50
2023-04-11T18:34:29.766Z,6.78
2023-04-11T18:37:32.949Z,5.40
2023-04-11T18:43:38.592Z,5.60
2023-04-11T18:46:41.456Z,5.07
2023-04-11T18:49:43.684Z,4.95
2023-04-11T18:52:48.089Z,5.60
2023-04-11T18:55:51.892Z,6.62
2023-04-11T18:58:56.472Z,5.20
2023-04-11T19:02:05.541Z,5.47
2023-04-11T19:05:13.617Z,6.07
2023-04-11T19:08:17.772Z,6.55
2023-04-11T19:11:20.281Z,5.80
2023-04-11T19:14:22.478Z,5.12
2023-04-11T19:17:24.955Z,5.37
2023-04-11T19:20:27.816Z,4.05
2023-04-11T19:23:31.068Z,4.07
2023-04-11T19:26:33.671Z,3.60
2023-04-11T19:29:37.229Z,4.15
2023-04-11T19:32:43.001Z,3.53
2023-04-11T19:35:46.394Z,3.83
2023-04-11T19:38:48.757Z,3.97
2023-04-11T19:41:52.122Z,3.80
2023-04-11T19:44:54.327Z,3.72
2023-04-11T19:47:56.768Z,3.53
2023-04-11T19:51:01.002Z,4.32
2023-04-11T19:54:04.283Z,3.47
2023-04-11T19:57:06.974Z,2.70
2023-04-11T20:00:12.312Z,3.72
2023-04-11T20:03:15.365Z,5.35
2023-04-11T20:06:18.599Z,3.80
2023-04-11T20:09:21.129Z,3.70
2023-04-11T20:12:23.330Z,3.62
2023-04-11T20:15:26.070Z,3.08
2023-04-11T20:18:28.769Z,3.75
2023-04-11T20:21:31.220Z,4.12
2023-04-11T20:24:33.400Z,3.75
2023-04-11T20:27:36.240Z,3.87
2023-04-11T20:30:39.083Z,3.55
2023-04-11T20:33:41.684Z,2.62
2023-04-11T20:36:43.957Z,3.03
2023-04-11T20:39:46.695Z,1.87
2023-04-11T20:42:49.583Z,2.30
2023-04-11T20:45:53.049Z,1.42
2023-04-11T20:48:55.212Z,1.80
2023-04-11T20:51:58.180Z,1.75
2023-04-11T20:55:01.175Z,1.42
2023-04-11T20:58:08.280Z,1.17
2023-04-11T21:01:10.434Z,1.48
2023-04-11T21:04:14.851Z,1.60
2023-04-11T21:07:18.112Z,1.12
2023-04-11T21:10:20.966Z,0.85
2023-04-11T21:13:23.349Z,1.65
2023-04-11T21:16:25.963Z,1.52
2023-04-11T21:19:28.278Z,1.00
2023-04-11T21:22:30.905Z,1.48
2023-04-11T21:25:33.152Z,1.02
2023-04-11T21:28:35.740Z,0.93
2023-04-11T21:31:38.122Z,1.35
2023-04-11T21:34:40.692Z,1.33
2023-04-11T21:37:43.034Z,1.17
2023-04-11T21:40:45.806Z,1.10
2023-04-11T21:43:47.965Z,1.23
2023-04-11T21:46:50.633Z,1.67
2023-04-11T21:49:53.231Z,1.60
2023-04-11T21:52:55.696Z,1.55
2023-04-11T21:55:57.880Z,0.90
2023-04-11T21:59:00.435Z,1.12
2023-04-11T22:02:02.998Z,1.37
2023-04-11T22:05:08.667Z,1.73
2023-04-11T22:08:13.282Z,1.30
2023-04-11T22:11:17.263Z,1.45
2023-04-11T22:14:19.769Z,2.10
2023-04-11T22:17:23.669Z,2.10
2023-04-11T22:23:28.239Z,2.00
2023-04-11T22:26:34.016Z,2.55
2023-04-11T22:29:36.678Z,2.00
2023-04-11T22:32:39.036Z,2.17
2023-04-11T22:35:47.652Z,2.10
2023-04-11T22:38:49.902Z,2.28
2023-04-11T22:41:53.464Z,2.00
2023-04-11T22:44:56.115Z,2.65
2023-04-11T22:48:00.034Z,2.47
2023-04-11T22:51:04.188Z,2.03
2023-04-11T22:54:08.239Z,2.12
2023-04-11T23:00:16.263Z,1.70
2023-04-11T23:03:19.212Z,1.77
2023-04-11T23:06:21.926Z,1.85
2023-04-11T23:09:24.169Z,1.80
2023-04-11T23:12:28.436Z,2.67
2023-04-11T23:15:31.676Z,1.83
2023-04-11T23:18:34.084Z,2.17
2023-04-11T23:21:37.766Z,1.70
2023-04-11T23:24:40.311Z,1.90
2023-04-11T23:27:43.601Z,1.67
2023-04-11T23:33:48.281Z,1.77
2023-04-11T23:36:51.714Z,1.87
2023-04-11T23:39:54.463Z,2.25
2023-04-11T23:42:57.908Z,2.20
2023-04-11T23:46:00.596Z,2.00
2023-04-11T23:49:04.822Z,1.80
2023-04-11T23:52:07.648Z,2.03
2023-04-11T23:55:10.925Z,2.40
2023-04-11T23:58:13.400Z,2.87
